createdAt,value
2022-10-23T00:01:13.512Z,101276.44
2022-10-23T00:03:41.145Z,101274.81
2022-10-23T00:06:09.374Z,101266.97
2022-10-23T00:08:37.003Z,101262.44
2022-10-23T00:11:08.728Z,101264.25
2022-10-23T00:13:36.798Z,101261.00
2022-10-23T00:16:06.591Z,101269.19
2022-10-23T00:18:34.448Z,101270.97
2022-10-23T00:21:02.496Z,101271.16
2022-10-23T00:23:30.142Z,101277.56
2022-10-23T00:25:57.770Z,101277.88
2022-10-23T00:28:25.464Z,101279.03
2022-10-23T00:30:53.393Z,101272.34
2022-10-23T00:33:22.393Z,101267.28
2022-10-23T00:35:49.980Z,101258.63
2022-10-23T00:38:17.582Z,101258.78
2022-10-23T00:40:47.060Z,101264.03
2022-10-23T00:43:19.272Z,101254.75
2022-10-23T00:45:47.402Z,101253.78
2022-10-23T00:48:15.968Z,101252.31
2022-10-23T00:50:45.638Z,101257.53
2022-10-23T00:53:15.032Z,101253.28
2022-10-23T00:55:46.678Z,101250.22
2022-10-23T00:58:15.001Z,101247.59
2022-10-23T01:00:45.849Z,101249.56
2022-10-23T01:03:15.476Z,101242.53
2022-10-23T01:05:50.337Z,101245.16
2022-10-23T01:08:27.222Z,101249.72
2022-10-23T01:11:03.693Z,101256.75
2022-10-23T01:13:38.668Z,101254.50
2022-10-23T01:16:14.032Z,101244.06
2022-10-23T01:18:47.094Z,101238.69
2022-10-23T01:21:19.957Z,101241.13
2022-10-23T01:24:13.227Z,101236.91
2022-10-23T01:27:04.268Z,101235.00
2022-10-23T01:29:39.721Z,101223.88
2022-10-23T01:32:13.975Z,101237.06
2022-10-23T01:34:48.617Z,101240.66
2022-10-23T01:37:21.996Z,101237.06
2022-10-23T01:39:53.313Z,101237.72
2022-10-23T01:42:25.263Z,101231.31
2022-10-23T01:45:00.458Z,101228.25
2022-10-23T01:47:31.706Z,101221.22
2022-10-23T01:50:01.023Z,101224.81
2022-10-23T01:52:28.815Z,101228.56
2022-10-23T01:55:00.665Z,101222.53
2022-10-23T01:57:32.155Z,101222.91
2022-10-23T02:00:05.130Z,101211.81
2022-10-23T02:02:34.723Z,101211.97
2022-10-23T02:05:07.632Z,101200.69
2022-10-23T02:07:36.197Z,101198.25
2022-10-23T02:10:04.824Z,101188.50
2022-10-23T02:12:40.891Z,101189.44
2022-10-23T02:15:15.106Z,101189.44
2022-10-23T02:17:51.752Z,101178.22
2022-10-23T02:20:25.660Z,101183.72
2022-10-23T02:23:03.173Z,101189.94
2022-10-23T02:25:35.861Z,101167.13
2022-10-23T02:28:09.277Z,101165.81
2022-10-23T02:30:42.958Z,101169.41
2022-10-23T02:33:13.249Z,101155.88
2022-10-23T02:35:41.145Z,101164.19
2022-10-23T02:38:34.426Z,101164.50
2022-10-23T02:41:14.445Z,101163.53
2022-10-23T02:43:50.254Z,101162.88
2022-10-23T02:46:26.203Z,101162.59
2022-10-23T02:49:02.938Z,101166.00
2022-10-23T02:51:38.824Z,101156.91
2022-10-23T02:54:09.402Z,101159.69
2022-10-23T02:56:44.243Z,101162.81
2022-10-23T02:59:21.322Z,101165.59
2022-10-23T03:01:54.178Z,101156.94
2022-10-23T03:04:25.761Z,101155.97
2022-10-23T03:06:53.600Z,101148.13
2022-10-23T03:09:21.304Z,101140.28
2022-10-23T03:11:48.891Z,101133.59
2022-10-23T03:14:16.492Z,101141.56
2022-10-23T03:16:44.124Z,101139.59
2022-10-23T03:19:13.984Z,101131.13
2022-10-23T03:21:41.527Z,101125.56
2022-10-23T03:24:09.448Z,101124.75
2022-10-23T03:26:37.042Z,101136.81
2022-10-23T03:29:04.661Z,101133.56
2022-10-23T03:31:32.278Z,101125.25
2022-10-23T03:34:00.543Z,101117.75
2022-10-23T03:36:29.565Z,101113.34
2022-10-23T03:39:00.046Z,101115.97
2022-10-23T03:41:27.676Z,101113.00
2022-10-23T03:43:55.279Z,101113.81
2022-10-23T03:46:22.950Z,101108.09
2022-10-23T03:48:50.527Z,101103.47
2022-10-23T03:51:18.180Z,101104.91
2022-10-23T03:53:47.273Z,101095.47
2022-10-23T03:56:15.001Z,101085.47
2022-10-23T03:58:42.620Z,101081.88
2022-10-23T04:01:10.316Z,101064.22
2022-10-23T04:03:38.046Z,101065.84
2022-10-23T04:06:06.017Z,101061.25
2022-10-23T04:08:33.625Z,101055.41
2022-10-23T04:11:02.658Z,101065.50
2022-10-23T04:13:30.380Z,101051.78
2022-10-23T04:15:57.933Z,101052.13
2022-10-23T04:18:25.707Z,101053.75
2022-10-23T04:20:53.990Z,101053.75
2022-10-23T04:23:21.762Z,101048.53
2022-10-23T04:25:49.327Z,101048.53
2022-10-23T04:28:18.232Z,101039.72
2022-10-23T04:30:45.789Z,101035.13
2022-10-23T04:33:13.447Z,101028.91
2022-10-23T04:35:41.076Z,101028.34
2022-10-23T04:38:08.709Z,101022.97
2022-10-23T04:40:36.319Z,101026.38
2022-10-23T04:43:04.335Z,101025.75
2022-10-23T04:45:33.386Z,101023.94
2022-10-23T04:48:00.940Z,101021.34
2022-10-23T04:50:28.574Z,101014.22
2022-10-23T04:52:56.891Z,101010.88
2022-10-23T04:55:25.589Z,100995.94
2022-10-23T04:57:53.586Z,101002.41
2022-10-23T05:00:21.315Z,101003.69
2022-10-23T05:02:50.213Z,101007.75
2022-10-23T05:05:17.871Z,101009.78
2022-10-23T05:07:45.700Z,101007.00
2022-10-23T05:10:13.538Z,101013.50
2022-10-23T05:12:41.144Z,101012.69
2022-10-23T05:15:09.067Z,101013.34
2022-10-23T05:17:41.616Z,101011.78
2022-10-23T05:20:14.899Z,101004.59
2022-10-23T05:22:45.426Z,101001.78
2022-10-23T05:25:13.794Z,101009.28
2022-10-23T05:27:41.729Z,100997.03
2022-10-23T05:30:10.876Z,101004.13
2022-10-23T05:32:39.096Z,100992.50
2022-10-23T05:35:10.110Z,101001.28
2022-10-23T05:37:42.595Z,100990.16
2022-10-23T05:40:11.411Z,100993.44
2022-10-23T05:42:40.922Z,100988.63
2022-10-23T05:45:10.646Z,100982.41
2022-10-23T05:47:38.215Z,100982.50
2022-10-23T05:50:06.403Z,100988.75
2022-10-23T05:52:33.976Z,100988.44
2022-10-23T05:55:02.924Z,100986.28
2022-10-23T05:57:33.579Z,100973.38
2022-10-23T06:00:01.181Z,100976.31
2022-10-23T06:02:29.129Z,100972.94
2022-10-23T06:04:56.801Z,100972.41
2022-10-23T06:07:25.583Z,100980.44
2022-10-23T06:09:54.229Z,100982.25
2022-10-23T06:12:23.146Z,100978.09
2022-10-23T06:14:51.865Z,100973.84
2022-10-23T06:17:19.602Z,100973.72
2022-10-23T06:19:47.194Z,100968.50
2022-10-23T06:22:14.897Z,100963.75
2022-10-23T06:24:42.508Z,100956.28
2022-10-23T06:27:10.094Z,100948.03
2022-10-23T06:29:39.605Z,100953.19
2022-10-23T06:32:07.143Z,100949.19
2022-10-23T06:34:35.047Z,100954.44
2022-10-23T06:37:02.605Z,100949.78
2022-10-23T06:39:32.144Z,100949.97
2022-10-23T06:42:00.049Z,100947.13
2022-10-23T06:44:27.624Z,100937.69
2022-10-23T06:46:56.562Z,100938.38
2022-10-23T06:49:24.318Z,100927.13
2022-10-23T06:51:51.900Z,100916.25
2022-10-23T06:54:19.428Z,100928.22
2022-10-23T06:56:47.039Z,100928.03
2022-10-23T06:59:14.625Z,100922.19
2022-10-23T07:01:42.348Z,100922.81
2022-10-23T07:04:13.589Z,100920.34
2022-10-23T07:06:41.497Z,100922.81
2022-10-23T07:09:09.669Z,100928.13
2022-10-23T07:11:38.129Z,100924.28
2022-10-23T07:14:05.723Z,100922.28
2022-10-23T07:16:33.352Z,100923.28
2022-10-23T07:19:01.832Z,100922.53
2022-10-23T07:21:32.236Z,100917.53
2022-10-23T07:23:59.866Z,100911.28
2022-10-23T07:26:28.120Z,100927.44
2022-10-23T07:28:55.912Z,100918.13
2022-10-23T07:31:27.211Z,100908.47
2022-10-23T07:33:55.878Z,100905.56
2022-10-23T07:36:23.424Z,100909.25
2022-10-23T07:38:53.091Z,100911.88
2022-10-23T07:41:20.953Z,100914.69
2022-10-23T07:43:48.599Z,100912.88
2022-10-23T07:46:16.219Z,100911.88
2022-10-23T07:48:43.785Z,100893.78
2022-10-23T07:51:14.580Z,100891.97
2022-10-23T07:53:43.299Z,100885.09
2022-10-23T07:56:14.142Z,100890.97
2022-10-23T07:58:41.798Z,100900.41
2022-10-23T08:01:17.980Z,100886.31
2022-10-23T08:03:45.938Z,100901.88
2022-10-23T08:06:13.760Z,100882.09
2022-10-23T08:08:41.418Z,100879.91
2022-10-23T08:11:11.691Z,100877.91
2022-10-23T08:13:41.722Z,100879.94
2022-10-23T08:16:09.396Z,100861.94
2022-10-23T08:18:36.982Z,100877.75
2022-10-23T08:21:05.582Z,100876.16
2022-10-23T08:23:33.134Z,100874.13
2022-10-23T08:26:02.024Z,100875.94
2022-10-23T08:28:29.800Z,100867.25
2022-10-23T08:30:59.205Z,100862.84
2022-10-23T08:33:26.803Z,100865.47
2022-10-23T08:35:54.405Z,100867.09
2022-10-23T08:38:22.142Z,100865.66
2022-10-23T08:40:50.518Z,100855.19
2022-10-23T08:43:22.955Z,100843.91
2022-10-23T08:45:53.667Z,100854.81
2022-10-23T08:48:29.315Z,100838.03
2022-10-23T08:51:00.406Z,100841.91
2022-10-23T08:53:35.745Z,100833.78
2022-10-23T08:56:07.891Z,100828.75
2022-10-23T08:58:41.059Z,100818.06
2022-10-23T09:01:31.535Z,100806.13
2022-10-23T09:04:01.047Z,100819.06
2022-10-23T09:06:36.276Z,100809.16
2022-10-23T09:09:18.475Z,100809.97
2022-10-23T09:11:54.789Z,100817.25
2022-10-23T09:14:43.442Z,100807.75
2022-10-23T09:17:23.982Z,100805.91
2022-10-23T09:20:00.188Z,100798.63
2022-10-23T09:22:28.756Z,100799.03
2022-10-23T09:24:56.327Z,100794.97
2022-10-23T09:27:24.007Z,100792.59
2022-10-23T09:29:53.822Z,100789.97
2022-10-23T09:32:32.741Z,100784.69
2022-10-23T09:35:01.744Z,100795.00
2022-10-23T09:37:31.156Z,100786.13
2022-10-23T09:40:05.231Z,100780.22
2022-10-23T09:42:32.910Z,100771.13
2022-10-23T09:45:01.720Z,100746.72
2022-10-23T09:47:29.309Z,100774.56
2022-10-23T09:49:57.771Z,100775.16
2022-10-23T09:52:33.183Z,100766.09
2022-10-23T09:55:03.549Z,100767.53
2022-10-23T09:57:36.876Z,100762.25
2022-10-23T10:00:16.429Z,100770.53
2022-10-23T10:02:45.040Z,100769.09
2022-10-23T10:05:24.001Z,100751.06
2022-10-23T10:08:03.724Z,100755.31
2022-10-23T10:10:36.889Z,100760.34
2022-10-23T10:13:16.142Z,100756.31
2022-10-23T10:15:50.797Z,100748.59
2022-10-23T10:18:27.904Z,100755.25
2022-10-23T10:21:06.293Z,100748.94
2022-10-23T10:23:43.187Z,100737.22
2022-10-23T10:26:18.674Z,100743.00
2022-10-23T10:28:59.905Z,100736.13
2022-10-23T10:31:39.746Z,100731.41
2022-10-23T10:34:15.405Z,100727.16
2022-10-23T10:36:50.364Z,100728.94
2022-10-23T10:39:29.313Z,100706.09
2022-10-23T10:42:10.898Z,100708.66
2022-10-23T10:45:05.719Z,100691.47
2022-10-23T10:47:45.109Z,100684.59
2022-10-23T10:50:20.286Z,100686.13
2022-10-23T10:52:57.713Z,100691.19
2022-10-23T10:55:33.290Z,100678.69
2022-10-23T10:58:06.579Z,100679.66
2022-10-23T11:00:35.371Z,100678.56
2022-10-23T11:03:10.403Z,100667.38
2022-10-23T11:05:42.728Z,100671.78
2022-10-23T11:08:16.044Z,100649.69
2022-10-23T11:10:47.342Z,100646.22
2022-10-23T11:13:25.986Z,100647.00
2022-10-23T11:15:58.991Z,100644.22
2022-10-23T11:18:29.535Z,100641.25
2022-10-23T11:21:08.463Z,100632.69
2022-10-23T11:23:54.370Z,100620.41
2022-10-23T11:26:35.922Z,100615.66
2022-10-23T11:29:41.407Z,100602.41
2022-10-23T11:32:27.598Z,100600.75
2022-10-23T11:35:11.597Z,100580.59
2022-10-23T11:37:39.266Z,100589.34
2022-10-23T11:40:22.793Z,100575.44
2022-10-23T11:42:52.412Z,100587.03
2022-10-23T11:45:34.787Z,100586.63
2022-10-23T11:48:04.955Z,100584.38
2022-10-23T11:50:50.430Z,100574.53
2022-10-23T11:53:27.948Z,100552.75
2022-10-23T11:56:00.672Z,100554.25
2022-10-23T11:58:42.284Z,100557.81
2022-10-23T12:01:25.782Z,100557.16
2022-10-23T12:03:57.137Z,100543.03
2022-10-23T12:06:28.471Z,100531.72
2022-10-23T12:09:00.946Z,100538.97
2022-10-23T12:11:44.499Z,100546.22
2022-10-23T12:14:31.685Z,100530.34
2022-10-23T12:16:59.747Z,100537.72
2022-10-23T12:19:29.291Z,100537.44
2022-10-23T12:22:01.811Z,100526.34
2022-10-23T12:24:56.561Z,100518.22
2022-10-23T12:27:35.066Z,100516.94
2022-10-23T12:30:16.314Z,100505.03
2022-10-23T12:33:14.475Z,100489.53
2022-10-23T12:36:22.485Z,100483.91
2022-10-23T12:38:50.693Z,100495.03
2022-10-23T12:41:26.428Z,100492.97
2022-10-23T12:43:56.786Z,100496.19
2022-10-23T12:46:33.839Z,100487.22
2022-10-23T12:49:04.431Z,100492.97
2022-10-23T12:51:34.050Z,100488.59
2022-10-23T12:54:02.624Z,100490.88
2022-10-23T12:56:35.462Z,100476.44
2022-10-23T12:59:05.000Z,100473.03
2022-10-23T13:01:36.306Z,100468.31
2022-10-23T13:04:14.040Z,100467.38
2022-10-23T13:06:41.856Z,100468.31
2022-10-23T13:09:22.783Z,100461.53
2022-10-23T13:11:51.844Z,100455.09
2022-10-23T13:14:34.574Z,100451.06
2022-10-23T13:17:05.355Z,100442.09
2022-10-23T13:19:33.634Z,100444.28
2022-10-23T13:22:01.987Z,100437.03
2022-10-23T13:24:30.941Z,100431.44
2022-10-23T13:26:59.051Z,100420.88
2022-10-23T13:29:29.817Z,100417.75
2022-10-23T13:31:58.018Z,100386.31
2022-10-23T13:34:28.763Z,100408.59
2022-10-23T13:36:59.870Z,100406.06
2022-10-23T13:39:30.633Z,100391.50
2022-10-23T13:42:02.385Z,100381.50
2022-10-23T13:44:30.004Z,100368.63
2022-10-23T13:46:57.843Z,100362.69
2022-10-23T13:49:26.744Z,100357.81
2022-10-23T13:51:56.313Z,100354.06
2022-10-23T13:54:25.604Z,100348.78
2022-10-23T13:56:54.559Z,100353.72
2022-10-23T13:59:22.674Z,100345.81
2022-10-23T14:01:51.879Z,100347.59
2022-10-23T14:04:20.212Z,100340.53
2022-10-23T14:06:49.174Z,100339.72
2022-10-23T14:09:19.297Z,100336.84
2022-10-23T14:11:47.703Z,100342.94
2022-10-23T14:14:15.293Z,100340.06
2022-10-23T14:16:42.949Z,100322.06
2022-10-23T14:19:11.800Z,100328.94
2022-10-23T14:21:39.414Z,100320.50
2022-10-23T14:24:09.661Z,100324.56
2022-10-23T14:26:37.997Z,100314.84
2022-10-23T14:29:09.753Z,100330.94
2022-10-23T14:31:39.164Z,100336.78
2022-10-23T14:34:06.760Z,100333.56
2022-10-23T14:36:43.480Z,100325.63
2022-10-23T14:39:19.551Z,100328.41
2022-10-23T14:41:47.116Z,100340.28
2022-10-23T14:44:14.803Z,100335.13
2022-10-23T14:46:42.466Z,100326.34
2022-10-23T14:49:10.033Z,100331.34
2022-10-23T14:51:37.595Z,100328.00
2022-10-23T14:54:07.344Z,100325.53
2022-10-23T14:56:38.129Z,100310.00
2022-10-23T14:59:06.496Z,100313.50
2022-10-23T15:01:36.897Z,100313.84
2022-10-23T15:04:05.153Z,100308.97
2022-10-23T15:06:33.747Z,100293.03
2022-10-23T15:09:02.132Z,100300.47
2022-10-23T15:11:29.831Z,100293.25
2022-10-23T15:14:00.418Z,100288.22
2022-10-23T15:16:28.189Z,100283.53
2022-10-23T15:18:55.792Z,100253.34
2022-10-23T15:21:23.572Z,100282.88
2022-10-23T15:23:52.913Z,100279.56
2022-10-23T15:26:23.060Z,100282.22
2022-10-23T15:28:54.333Z,100274.53
2022-10-23T15:31:41.937Z,100267.50
2022-10-23T15:34:11.450Z,100268.91
2022-10-23T15:36:39.306Z,100263.91
2022-10-23T15:39:08.842Z,100256.44
2022-10-23T15:41:40.574Z,100245.22
2022-10-23T15:44:09.909Z,100246.34
2022-10-23T15:46:38.880Z,100240.19
2022-10-23T15:49:08.412Z,100233.06
2022-10-23T15:51:37.527Z,100238.59
2022-10-23T15:54:06.182Z,100237.47
2022-10-23T15:56:33.609Z,100227.72
2022-10-23T15:59:01.296Z,100222.09
2022-10-23T16:01:29.160Z,100226.34
2022-10-23T16:03:58.219Z,100224.88
2022-10-23T16:06:25.809Z,100214.09
2022-10-23T16:11:23.719Z,100217.22
2022-10-23T16:13:51.556Z,100205.13
2022-10-23T16:16:19.481Z,100203.91
2022-10-23T16:18:47.408Z,100213.66
2022-10-23T16:21:20.069Z,100219.84
2022-10-23T16:23:48.064Z,100215.50
2022-10-23T16:26:16.723Z,100216.06
2022-10-23T16:28:47.082Z,100219.03
2022-10-23T16:31:19.992Z,100215.16
2022-10-23T16:33:48.670Z,100212.59
2022-10-23T16:36:18.536Z,100210.22
2022-10-23T16:38:46.226Z,100211.59
2022-10-23T16:41:14.243Z,100204.25
2022-10-23T16:43:41.957Z,100195.06
2022-10-23T16:46:13.483Z,100200.59
2022-10-23T16:48:42.140Z,100190.41
2022-10-23T16:51:10.595Z,100186.59
2022-10-23T16:53:39.806Z,100185.00
2022-10-23T16:56:09.918Z,100151.81
2022-10-23T16:58:40.742Z,100172.28
2022-10-23T17:01:10.833Z,100177.56
2022-10-23T17:03:41.166Z,100161.72
2022-10-23T17:06:11.557Z,100163.78
2022-10-23T17:08:40.660Z,100169.00
2022-10-23T17:11:10.408Z,100176.56
2022-10-23T17:13:40.491Z,100174.25
2022-10-23T17:16:10.552Z,100180.81
2022-10-23T17:18:42.862Z,100188.94
2022-10-23T17:21:11.882Z,100181.50
2022-10-23T17:23:41.744Z,100175.41
2022-10-23T17:26:10.711Z,100183.91
2022-10-23T17:28:41.540Z,100182.53
2022-10-23T17:31:14.504Z,100177.69
2022-10-23T17:33:42.716Z,100177.03
2022-10-23T17:36:11.236Z,100172.31
2022-10-23T17:38:41.000Z,100180.00
2022-10-23T17:41:09.401Z,100169.34
2022-10-23T17:43:37.905Z,100178.84
2022-10-23T17:46:06.124Z,100164.56
2022-10-23T17:48:35.043Z,100165.03
2022-10-23T17:51:04.178Z,100170.50
2022-10-23T17:53:31.869Z,100166.47
2022-10-23T17:56:02.341Z,100172.56
2022-10-23T17:58:29.974Z,100168.41
2022-10-23T18:00:57.821Z,100167.84
2022-10-23T18:03:25.536Z,100163.94
2022-10-23T18:05:53.134Z,100164.41
2022-10-23T18:08:20.749Z,100166.34
2022-10-23T18:10:48.318Z,100164.53
2022-10-23T18:13:17.244Z,100165.56
2022-10-23T18:15:44.807Z,100154.06
2022-10-23T18:18:12.364Z,100165.09
2022-10-23T18:20:41.026Z,100168.75
2022-10-23T18:23:08.900Z,100164.28
2022-10-23T18:25:36.464Z,100142.56
2022-10-23T18:28:04.171Z,100137.44
2022-10-23T18:30:33.163Z,100131.91
2022-10-23T18:33:00.757Z,100140.16
2022-10-23T18:35:28.302Z,100149.09
2022-10-23T18:37:55.879Z,100152.78
2022-10-23T18:40:25.670Z,100167.00
2022-10-23T18:42:55.917Z,100155.28
2022-10-23T18:45:23.516Z,100135.78
2022-10-23T18:47:52.474Z,100124.97
2022-10-23T18:50:20.187Z,100134.50
2022-10-23T18:52:48.059Z,100127.38
2022-10-23T18:55:15.803Z,100125.91
2022-10-23T18:57:43.637Z,100137.41
2022-10-23T19:00:13.445Z,100128.75
2022-10-23T19:02:41.350Z,100104.00
2022-10-23T19:05:10.678Z,100118.75
2022-10-23T19:07:38.741Z,100107.56
2022-10-23T19:10:07.611Z,100100.34
2022-10-23T19:12:35.170Z,100072.66
2022-10-23T19:15:02.738Z,100104.16
2022-10-23T19:17:33.142Z,100124.56
2022-10-23T19:20:03.984Z,100138.00
2022-10-23T19:22:35.767Z,100150.22
2022-10-23T19:25:10.190Z,100173.72
2022-10-23T19:27:38.886Z,100186.75
2022-10-23T19:30:13.389Z,100188.50
2022-10-23T19:32:41.420Z,100187.53
2022-10-23T19:35:10.581Z,100180.47
2022-10-23T19:37:39.854Z,100185.94
2022-10-23T19:40:09.537Z,100189.06
2022-10-23T19:42:39.923Z,100183.47
2022-10-23T19:45:10.001Z,100189.97
2022-10-23T19:47:38.056Z,100187.81
2022-10-23T19:50:07.379Z,100195.38
2022-10-23T19:52:35.037Z,100198.00
2022-10-23T19:55:05.455Z,100208.75
2022-10-23T19:57:34.691Z,100205.53
2022-10-23T20:00:04.361Z,100188.94
2022-10-23T20:05:04.937Z,100194.88
2022-10-23T20:07:32.637Z,100213.09
2022-10-23T20:10:00.421Z,100207.25
2022-10-23T20:12:29.391Z,100208.53
2022-10-23T20:14:57.008Z,100215.88
2022-10-23T20:17:25.247Z,100207.84
2022-10-23T20:19:53.595Z,100211.84
2022-10-23T20:22:21.249Z,100214.56
2022-10-23T20:24:48.882Z,100206.34
2022-10-23T20:27:18.429Z,100218.56
2022-10-23T20:29:48.575Z,100209.56
2022-10-23T20:32:16.697Z,100207.03
2022-10-23T20:34:44.263Z,100212.28
2022-10-23T20:37:11.859Z,100215.97
2022-10-23T20:39:39.803Z,100213.75
2022-10-23T20:42:08.288Z,100215.34
2022-10-23T20:44:36.202Z,100211.88
2022-10-23T20:47:05.191Z,100215.41
2022-10-23T20:49:32.756Z,100226.94
2022-10-23T20:52:00.353Z,100224.75
2022-10-23T20:54:28.764Z,100228.63
2022-10-23T20:56:57.489Z,100226.81
2022-10-23T20:59:24.929Z,100223.09
2022-10-23T21:01:55.217Z,100230.75
2022-10-23T21:04:27.652Z,100236.00
2022-10-23T21:07:12.820Z,100225.06
2022-10-23T21:09:40.868Z,100226.09
2022-10-23T21:12:09.726Z,100233.38
2022-10-23T21:14:37.557Z,100223.56
2022-10-23T21:17:05.452Z,100222.06
2022-10-23T21:19:34.482Z,100220.00
2022-10-23T21:22:02.073Z,100216.94
2022-10-23T21:24:29.673Z,100224.25
2022-10-23T21:26:57.231Z,100223.44
2022-10-23T21:29:24.834Z,100231.56
2022-10-23T21:31:53.602Z,100223.44
2022-10-23T21:34:21.264Z,100241.25
2022-10-23T21:39:37.887Z,100226.50
2022-10-23T21:42:05.831Z,100224.47
2022-10-23T21:44:33.738Z,100223.88
2022-10-23T21:47:01.364Z,100219.31
2022-10-23T21:49:28.955Z,100227.41
2022-10-23T21:51:57.836Z,100221.13
2022-10-23T21:54:25.421Z,100224.78
2022-10-23T21:56:54.226Z,100232.44
2022-10-23T21:59:24.158Z,100229.34
2022-10-23T22:01:52.480Z,100234.88
2022-10-23T22:04:22.015Z,100245.38
2022-10-23T22:06:50.732Z,100271.28
2022-10-23T22:09:20.958Z,100271.94
2022-10-23T22:11:49.766Z,100257.06
2022-10-23T22:14:17.427Z,100241.13
2022-10-23T22:16:45.096Z,100235.59
2022-10-23T22:19:14.589Z,100233.63
2022-10-23T22:21:43.066Z,100226.31
2022-10-23T22:24:10.991Z,100227.56
2022-10-23T22:26:41.722Z,100232.69
2022-10-23T22:29:11.172Z,100226.63
2022-10-23T22:31:44.061Z,100227.78
2022-10-23T22:34:34.161Z,100223.25
2022-10-23T22:37:08.056Z,100217.59
2022-10-23T22:39:35.653Z,100219.19
2022-10-23T22:42:04.831Z,100212.53
2022-10-23T22:44:32.424Z,100215.50
2022-10-23T22:46:59.961Z,100215.75
2022-10-23T22:49:27.490Z,100216.91
2022-10-23T22:51:55.046Z,100217.28
2022-10-23T22:54:22.641Z,100207.94
2022-10-23T22:56:50.198Z,100219.59
2022-10-23T22:59:19.117Z,100210.75
2022-10-23T23:01:48.152Z,100220.56
2022-10-23T23:04:38.396Z,100206.16
2022-10-23T23:07:06.194Z,100209.94
2022-10-23T23:09:36.730Z,100204.91
2022-10-23T23:12:04.706Z,100204.91
2022-10-23T23:14:33.904Z,100205.94
2022-10-23T23:17:01.520Z,100197.47
2022-10-23T23:19:29.090Z,100185.41
2022-10-23T23:21:57.534Z,100183.88
2022-10-23T23:24:25.894Z,100183.16
2022-10-23T23:26:53.928Z,100181.34
2022-10-23T23:29:21.717Z,100177.09
2022-10-23T23:31:50.750Z,100172.88
2022-10-23T23:34:18.306Z,100180.75
2022-10-23T23:36:45.840Z,100172.88
2022-10-23T23:39:13.601Z,100175.13
2022-10-23T23:41:41.170Z,100178.44
2022-10-23T23:44:09.041Z,100161.66
2022-10-23T23:46:36.555Z,100165.44
2022-10-23T23:49:05.533Z,100165.44
2022-10-23T23:51:33.134Z,100156.41
2022-10-23T23:54:00.711Z,100150.47
2022-10-23T23:56:28.610Z,100154.41
2022-10-23T23:58:56.225Z,100160.91
